Time;durP1;ratioP1;P1;durP2;ratioP2;P2;SDS_P1;SDS_P2;PMS_P1;PMS_P2;Temp;Humidity;BMP_temperature;BMP_pressure;BME280_temperature;BME280_humidity;BME280_pressure;Samples;Min_cycle;Max_cycle;Signal;HPM_P1;HPM_P2
2021/10/24 00:02:14;;;;;;;4.78;1.80;;;4.00;99.90;;;3.56;92.92;61342.56;5080181;28;20078;-76
2021/10/24 00:04:41;;;;;;;4.25;2.08;;;4.00;99.90;;;3.52;92.68;61338.41;5085752;28;20141;-76
2021/10/24 00:07:10;;;;;;;9.50;2.83;;;3.90;99.90;;;3.48;93.25;61334.22;5077722;28;20060;-76
2021/10/24 00:09:38;;;;;;;8.82;1.95;;;3.90;99.90;;;3.43;93.85;61329.94;5038267;28;20066;-75
2021/10/24 00:12:05;;;;;;;5.65;1.92;;;3.80;99.90;;;3.38;93.39;61324.22;5072994;28;20464;-75
2021/10/24 00:14:32;;;;;;;9.63;2.00;;;3.70;99.90;;;3.33;93.50;61318.78;5062557;28;20048;-75
2021/10/24 00:16:59;;;;;;;7.15;2.08;;;3.70;99.90;;;3.27;94.69;61313.09;5083884;28;20075;-75
2021/10/24 00:19:27;;;;;;;8.23;2.20;;;3.60;99.90;;;3.22;94.45;61307.56;5081140;28;20050;-76
2021/10/24 00:21:55;;;;;;;10.82;2.58;;;3.50;99.90;;;3.17;95.13;61302.25;5045932;28;20513;-75
2021/10/24 00:24:23;;;;;;;5.53;2.15;;;3.50;99.90;;;3.13;94.75;61298.63;5038026;28;20063;-77
2021/10/24 00:26:50;;;;;;;4.00;2.03;;;3.50;99.90;;;3.09;94.91;61294.88;5088839;28;20593;-76
2021/10/24 00:29:18;;;;;;;6.85;1.92;;;3.50;99.90;;;3.05;94.85;61290.84;5061129;28;20144;-76
2021/10/24 00:31:45;;;;;;;9.60;2.20;;;3.50;99.90;;;3.01;95.86;61286.13;5089583;28;20127;-76
2021/10/24 00:34:14;;;;;;;6.63;2.53;;;3.40;99.90;;;2.96;96.35;61281.41;5062807;28;20102;-77
2021/10/24 00:36:41;;;;;;;7.00;2.00;;;3.40;99.90;;;2.92;95.95;61277.19;5077851;28;20044;-77
2021/10/24 00:39:08;;;;;;;7.13;2.25;;;3.40;99.90;;;2.88;95.42;61272.66;5057965;28;20123;-76
2021/10/24 00:41:36;;;;;;;11.88;2.92;;;3.40;99.90;;;2.84;95.75;61268.59;5071194;28;20071;-76
2021/10/24 00:44:24;;;;;;;8.50;2.28;;;3.40;99.90;;;2.80;95.03;61264.50;5080686;28;20055;-74
2021/10/24 00:46:53;;;;;;;6.30;2.15;;;3.20;99.90;;;2.76;95.82;61260.03;5068780;28;20036;-76
2021/10/24 00:49:22;;;;;;;7.03;2.00;;;3.10;99.90;;;2.72;96.17;61256.16;5075197;28;20048;-76
2021/10/24 00:51:50;;;;;;;7.10;2.40;;;3.40;99.90;;;2.68;97.15;61251.97;5085311;28;20041;-76
2021/10/24 00:54:21;;;;;;;6.22;2.65;;;3.10;99.90;;;2.65;96.66;61248.34;5081634;28;20089;-76
2021/10/24 00:56:53;;;;;;;6.20;2.40;;;3.10;99.90;;;2.61;96.85;61244.97;5076274;28;20075;-75
2021/10/24 00:59:23;;;;;;;9.18;2.30;;;3.10;99.90;;;2.58;96.59;61242.00;5074467;28;20052;-76
2021/10/24 01:01:50;;;;;;;5.85;1.77;;;3.20;99.90;;;2.56;96.00;61239.88;5067274;28;20072;-75
2021/10/24 01:04:19;;;;;;;7.85;2.55;;;3.20;99.90;;;2.53;95.99;61236.75;5084879;28;20056;-75
2021/10/24 01:06:50;;;;;;;12.88;3.03;;;3.10;99.90;;;2.50;97.06;61234.03;5035161;28;20131;-75
2021/10/24 01:09:21;;;;;;;6.22;2.50;;;3.10;99.90;;;2.48;96.61;61231.22;5080390;28;20036;-74
2021/10/24 01:11:50;;;;;;;9.27;2.70;;;3.10;99.90;;;2.45;96.89;61228.41;5076241;28;20036;-75
2021/10/24 01:14:18;;;;;;;9.50;2.83;;;3.10;99.90;;;2.42;97.44;61225.16;5054385;28;20106;-75
2021/10/24 01:16:45;;;;;;;9.60;2.70;;;3.00;99.90;;;2.39;97.11;61223.03;5084106;28;20078;-76
2021/10/24 01:19:13;;;;;;;7.50;2.33;;;2.90;99.90;;;2.37;96.45;61220.88;5084672;28;20170;-76
2021/10/24 01:21:40;;;;;;;8.05;2.63;;;2.90;99.90;;;2.35;97.09;61217.97;5064267;28;20044;-75
2021/10/24 01:24:08;;;;;;;8.20;3.15;;;2.90;99.90;;;2.33;97.48;61216.09;5087732;28;20116;-75
2021/10/24 01:26:38;;;;;;;20.67;3.08;;;2.90;99.90;;;2.31;97.10;61214.13;5071395;28;20512;-75
2021/10/24 01:29:08;;;;;;;9.30;3.40;;;2.90;99.90;;;2.28;97.20;61211.34;5087686;28;20079;-75
2021/10/24 01:31:36;;;;;;;13.40;2.78;;;2.90;99.90;;;2.27;97.29;61209.56;5091931;28;20075;-76
2021/10/24 01:34:05;;;;;;;9.30;3.03;;;2.90;99.90;;;2.26;97.55;61208.66;5070292;28;20076;-76
2021/10/24 01:36:33;;;;;;;10.95;2.88;;;3.00;99.90;;;2.25;96.66;61207.66;5055505;28;20099;-75
2021/10/24 01:39:00;;;;;;;11.23;3.30;;;3.00;99.90;;;2.24;97.19;61206.22;5071965;28;20068;-76
2021/10/24 01:41:28;;;;;;;13.10;2.58;;;3.00;99.90;;;2.23;97.04;61205.53;5051783;28;20390;-75
2021/10/24 01:43:56;;;;;;;8.43;2.63;;;3.00;99.90;;;2.22;96.92;61204.63;5066130;28;20048;-75
2021/10/24 01:46:24;;;;;;;9.93;2.72;;;3.00;99.90;;;2.21;96.84;61203.69;5075151;28;20072;-75
2021/10/24 01:48:51;;;;;;;13.02;3.80;;;2.90;99.90;;;2.19;96.41;61201.66;5074766;28;20043;-75
2021/10/24 01:51:20;;;;;;;8.15;2.63;;;2.90;99.90;;;2.17;96.78;61200.06;5059907;28;20215;-75
2021/10/24 01:53:48;;;;;;;9.18;2.65;;;2.80;99.90;;;2.15;97.10;61198.16;5057487;28;20130;-75
2021/10/24 01:56:15;;;;;;;13.00;3.00;;;2.90;99.90;;;2.13;96.74;61195.88;5087842;28;20044;-76
2021/10/24 01:58:44;;;;;;;14.73;3.35;;;2.90;99.90;;;2.11;97.31;61193.81;5069755;28;20056;-75
2021/10/24 02:01:12;;;;;;;9.75;2.90;;;2.90;99.90;;;2.10;97.66;61192.31;5053697;28;20072;-75
2021/10/24 02:03:39;;;;;;;9.10;3.05;;;2.90;99.90;;;2.09;97.55;61191.06;5072309;28;20052;-75
2021/10/24 02:06:06;;;;;;;7.35;3.35;;;2.90;99.90;;;2.07;97.81;61189.03;5070584;28;20114;-75
2021/10/24 02:08:33;;;;;;;10.13;3.22;;;2.80;99.90;;;2.05;97.33;61188.06;5089066;28;20484;-76
2021/10/24 02:11:01;;;;;;;12.40;3.03;;;2.80;99.90;;;2.04;97.62;61186.59;5065822;28;20598;-77
2021/10/24 02:13:28;;;;;;;11.35;3.78;;;2.80;99.90;;;2.01;97.37;61183.88;5037586;28;20068;-76
2021/10/24 02:15:55;;;;;;;15.30;3.50;;;2.70;99.90;;;1.99;97.88;61181.44;5057310;28;20089;-75
2021/10/24 02:18:22;;;;;;;13.38;3.95;;;2.70;99.90;;;1.97;97.94;61179.16;5088330;28;20457;-76
2021/10/24 02:20:49;;;;;;;9.93;3.53;;;2.70;99.90;;;1.94;97.76;61176.28;5071170;28;20130;-76
2021/10/24 02:23:16;;;;;;;7.75;2.70;;;2.70;99.90;;;1.92;97.69;61173.75;5052594;28;20463;-75
2021/10/24 02:25:43;;;;;;;10.23;3.00;;;2.60;99.90;;;1.89;97.84;61171.28;5089431;28;20082;-77
2021/10/24 02:28:10;;;;;;;11.90;3.80;;;2.60;99.90;;;1.87;98.46;61168.56;5051497;28;20148;-77
2021/10/24 02:30:37;;;;;;;11.57;3.83;;;2.60;99.90;;;1.85;98.78;61166.25;5053470;28;20453;-76
2021/10/24 02:33:04;;;;;;;6.68;3.15;;;2.60;99.90;;;1.83;98.87;61164.69;5052121;28;20132;-76
2021/10/24 02:35:31;;;;;;;11.55;3.78;;;2.60;99.90;;;1.82;98.59;61163.63;5055384;28;20128;-75
2021/10/24 02:37:58;;;;;;;10.55;3.10;;;2.70;99.90;;;1.81;98.36;61162.22;5067449;28;20040;-75
2021/10/24 02:40:25;;;;;;;11.55;3.40;;;2.70;99.90;;;1.78;97.88;61159.78;5071757;28;20085;-74
2021/10/24 02:42:53;;;;;;;11.18;3.45;;;2.70;99.90;;;1.76;97.98;61157.41;5070170;28;20071;-75
2021/10/24 02:45:21;;;;;;;8.32;3.88;;;2.60;99.90;;;1.73;98.59;61154.69;5056034;28;20118;-75
2021/10/24 02:47:48;;;;;;;8.35;3.65;;;2.30;99.90;;;1.71;98.73;61152.78;5031317;28;20555;-74
2021/10/24 02:50:17;;;;;;;8.75;3.47;;;2.30;99.90;;;1.69;98.83;61150.31;5068972;28;20074;-74
2021/10/24 02:52:44;;;;;;;18.08;4.07;;;2.30;99.90;;;1.67;98.71;61148.28;5073593;28;20555;-75
2021/10/24 02:55:12;;;;;;;7.18;3.10;;;2.30;99.90;;;1.65;98.71;61146.56;5063676;28;20146;-75
2021/10/24 02:57:39;;;;;;;21.05;3.53;;;2.30;99.90;;;1.64;98.30;61145.06;5065257;28;20494;-74
2021/10/24 03:00:08;;;;;;;11.82;4.40;;;2.30;99.90;;;1.63;98.15;61143.72;5067956;28;20131;-77
2021/10/24 03:02:36;;;;;;;9.60;3.55;;;2.30;99.90;;;1.62;98.45;61142.63;5054299;28;20135;-77
2021/10/24 03:05:07;;;;;;;7.63;3.67;;;2.40;99.90;;;1.60;98.39;61141.59;5072250;28;20399;-77
2021/10/24 03:07:35;;;;;;;10.40;4.03;;;2.40;99.90;;;1.59;98.23;61140.25;5070326;28;20097;-77
2021/10/24 03:10:04;;;;;;;12.85;4.10;;;2.30;99.90;;;1.58;98.21;61139.31;5087720;28;20087;-76
2021/10/24 03:12:31;;;;;;;9.30;3.72;;;2.40;99.90;;;1.57;98.26;61138.81;5081481;28;20101;-76
2021/10/24 03:14:58;;;;;;;11.57;3.92;;;2.50;99.90;;;1.57;98.11;61137.97;5062975;28;20075;-77
2021/10/24 03:17:25;;;;;;;10.32;3.30;;;2.50;99.90;;;1.56;97.73;61137.47;5066200;28;20558;-76
2021/10/24 03:19:52;;;;;;;8.15;3.88;;;2.60;99.90;;;1.55;98.06;61136.06;5059560;28;20119;-76
2021/10/24 03:22:19;;;;;;;12.65;4.05;;;2.50;99.90;;;1.53;97.78;61133.88;5049321;28;20128;-76
2021/10/24 03:24:46;;;;;;;12.65;3.83;;;2.40;99.90;;;1.51;98.37;61132.28;5050616;28;20524;-76
2021/10/24 03:27:13;;;;;;;16.15;4.47;;;2.40;99.90;;;1.51;99.27;61131.00;5070149;28;20143;-76
2021/10/24 03:29:40;;;;;;;11.43;4.15;;;2.40;99.90;;;1.49;98.18;61129.63;5087037;28;20079;-77
2021/10/24 03:32:08;;;;;;;9.82;4.07;;;2.40;99.90;;;1.47;98.51;61127.63;5086202;28;20052;-76
2021/10/24 03:34:35;;;;;;;12.85;4.85;;;2.30;99.90;;;1.45;98.61;61125.88;5087798;28;20130;-77
2021/10/24 03:37:02;;;;;;;8.65;3.97;;;2.30;99.90;;;1.44;98.52;61124.00;5068170;28;20130;-77
2021/10/24 03:39:30;;;;;;;12.25;3.20;;;2.30;99.90;;;1.42;98.45;61122.69;5069593;28;20127;-76
2021/10/24 03:41:57;;;;;;;9.07;3.78;;;2.30;99.90;;;1.41;98.64;61121.13;5049715;28;20055;-76
2021/10/24 03:44:24;;;;;;;11.55;3.95;;;2.30;99.90;;;1.40;98.89;61119.78;5052459;28;20090;-76
2021/10/24 03:46:51;;;;;;;13.30;4.20;;;2.30;99.90;;;1.39;99.18;61119.00;5069099;28;20466;-77
2021/10/24 03:49:19;;;;;;;12.65;4.22;;;2.10;99.90;;;1.38;99.15;61117.91;5087690;28;20466;-76
2021/10/24 03:51:46;;;;;;;13.35;4.05;;;2.10;99.90;;;1.37;99.22;61116.97;5049472;28;20144;-76
2021/10/24 03:54:13;;;;;;;9.68;4.18;;;2.20;99.90;;;1.36;99.38;61115.91;5037956;28;20127;-76
2021/10/24 03:56:40;;;;;;;14.35;4.13;;;2.20;99.90;;;1.35;99.18;61114.66;5051181;28;20051;-76
2021/10/24 03:59:07;;;;;;;8.85;3.60;;;2.10;99.90;;;1.33;99.11;61113.31;5070232;28;20476;-76
2021/10/24 04:01:34;;;;;;;14.60;4.20;;;2.10;99.90;;;1.32;99.18;61111.25;5064951;28;20148;-76
2021/10/24 04:04:01;;;;;;;14.07;4.90;;;2.10;99.90;;;1.29;99.40;61108.59;5050529;28;20059;-76
2021/10/24 04:06:29;;;;;;;10.65;3.80;;;2.00;99.90;;;1.26;99.62;61106.19;5069067;28;20666;-76
2021/10/24 04:08:56;;;;;;;15.63;4.70;;;1.90;99.90;;;1.24;99.98;61103.75;5087110;28;20104;-76
2021/10/24 04:11:23;;;;;;;12.77;4.82;;;1.90;99.90;;;1.21;99.69;61100.66;5069955;28;20051;-76
2021/10/24 04:13:50;;;;;;;13.93;4.90;;;1.80;99.90;;;1.18;99.96;61097.56;5069672;28;20044;-76
2021/10/24 04:16:17;;;;;;;14.57;4.78;;;1.80;99.90;;;1.14;99.88;61094.09;5069407;28;20528;-76
2021/10/24 04:18:44;;;;;;;17.58;4.90;;;1.70;99.90;;;1.11;100.00;61091.00;5087086;28;20047;-76
2021/10/24 04:21:11;;;;;;;11.73;4.50;;;1.70;99.90;;;1.08;100.00;61087.75;5080320;28;20094;-75
2021/10/24 04:23:38;;;;;;;14.07;4.72;;;1.60;99.90;;;1.06;100.00;61085.78;5066930;28;20048;-75
2021/10/24 04:26:05;;;;;;;20.92;5.00;;;1.70;99.90;;;1.04;100.00;61083.88;5062083;28;20083;-77
2021/10/24 04:28:32;;;;;;;7.93;3.65;;;1.70;99.90;;;1.02;100.00;61082.41;5062819;28;20087;-76
2021/10/24 04:30:59;;;;;;;9.75;4.10;;;1.70;99.90;;;1.01;99.89;61081.50;5037887;28;20343;-75
2021/10/24 04:38:38;;;;;;;11.75;4.85;;;1.70;99.90;;;0.98;99.73;61078.25;5080178;28;20127;-76
2021/10/24 04:41:06;;;;;;;9.65;3.67;;;1.70;99.90;;;0.98;99.81;61077.28;5070408;28;20047;-76
2021/10/24 04:43:33;;;;;;;10.05;3.60;;;1.80;99.90;;;0.97;99.59;61076.63;5058375;28;20076;-76
2021/10/24 04:46:00;;;;;;;8.35;3.55;;;1.80;99.90;;;0.96;99.44;61075.53;5083893;28;20040;-77
2021/10/24 04:48:27;;;;;;;14.55;4.97;;;1.80;99.90;;;0.95;99.83;61074.88;5088248;28;20121;-77
2021/10/24 04:50:54;;;;;;;9.77;4.55;;;1.70;99.90;;;0.95;100.00;61075.00;5051051;28;20459;-77
2021/10/24 04:53:23;;;;;;;13.15;4.43;;;1.80;99.90;;;0.95;99.42;61074.88;5052454;28;20048;-76
2021/10/24 04:55:51;;;;;;;15.93;4.57;;;1.80;99.90;;;0.94;98.96;61074.34;5072472;28;20048;-77
2021/10/24 04:58:18;;;;;;;10.90;3.88;;;1.80;99.90;;;0.92;97.52;61072.34;5072825;28;20083;-75
2021/10/24 05:00:45;;;;;;;5.93;2.22;;;1.80;99.90;;;0.91;97.11;61070.53;5083792;28;20218;-75
2021/10/24 05:03:12;;;;;;;7.45;3.00;;;1.80;99.90;;;0.88;95.70;61068.00;5074020;28;20055;-75
2021/10/24 05:05:39;;;;;;;5.40;1.92;;;1.60;99.90;;;0.86;95.85;61065.34;5051843;28;20059;-75
2021/10/24 05:08:06;;;;;;;9.23;3.28;;;1.50;99.90;;;0.82;96.25;61062.56;5087885;28;20060;-75
2021/10/24 05:10:33;;;;;;;9.63;4.68;;;1.40;99.90;;;0.81;96.44;61061.41;5052760;28;20493;-75
2021/10/24 05:13:00;;;;;;;16.13;4.70;;;1.40;99.90;;;0.79;96.44;61059.94;5085584;28;20055;-75
2021/10/24 05:15:27;;;;;;;18.75;6.05;;;1.50;99.90;;;0.78;95.52;61058.22;5084706;28;20055;-75
2021/10/24 05:17:54;;;;;;;14.57;5.15;;;1.40;99.90;;;0.76;95.53;61056.44;5089308;28;20090;-75
2021/10/24 05:20:21;;;;;;;10.38;4.20;;;1.40;99.90;;;0.75;95.20;61055.09;5089178;28;20123;-75
2021/10/24 05:22:48;;;;;;;10.02;4.20;;;1.40;99.90;;;0.73;94.78;61053.66;5053933;28;20423;-75
2021/10/24 05:25:16;;;;;;;10.70;4.53;;;1.30;99.90;;;0.71;94.66;61052.38;5076973;28;20048;-75
2021/10/24 05:27:43;;;;;;;9.60;4.05;;;1.30;99.90;;;0.70;94.65;61050.91;5071762;28;20501;-75
2021/10/24 05:30:10;;;;;;;10.07;3.78;;;1.30;99.90;;;0.68;94.95;61048.59;5050086;28;20459;-76
2021/10/24 05:32:37;;;;;;;6.25;3.20;;;;;;;0.65;95.11;61046.03;5085483;28;20124;-75
2021/10/24 05:35:05;;;;;;;8.38;3.83;;;1.20;99.90;;;0.63;95.43;61044.03;5070898;28;20094;-76
2021/10/24 05:37:32;;;;;;;10.00;3.50;;;1.20;99.90;;;0.61;95.53;61041.97;5071608;28;20072;-75
2021/10/24 05:39:59;;;;;;;11.63;3.20;;;1.20;99.90;;;0.59;95.49;61040.41;5080603;28;20505;-75
2021/10/24 05:42:26;;;;;;;10.82;3.67;;;1.30;99.90;;;0.57;95.82;61038.56;5074747;28;20063;-75
2021/10/24 05:44:53;;;;;;;5.53;2.58;;;1.20;99.90;;;0.56;95.18;61037.09;5071680;28;20405;-76
2021/10/24 05:47:20;;;;;;;10.35;3.38;;;1.30;99.90;;;0.54;94.88;61035.06;5084315;28;20076;-75
2021/10/24 05:49:49;;;;;;;7.22;3.22;;;1.30;99.90;;;0.52;95.18;61033.50;5034980;28;20491;-77
2021/10/24 05:52:17;;;;;;;12.68;3.88;;;1.20;99.90;;;0.51;93.88;61032.00;5090395;28;20474;-76
2021/10/24 05:54:44;;;;;;;7.63;3.20;;;1.20;99.90;;;0.48;94.62;61029.72;5086112;28;20462;-76
2021/10/24 05:57:11;;;;;;;9.88;3.78;;;1.20;99.90;;;0.46;93.84;61027.44;5070717;28;20135;-76
2021/10/24 05:59:38;;;;;;;10.98;4.50;;;1.20;99.90;;;0.45;93.55;61025.97;5069299;28;20458;-76
2021/10/24 06:02:10;;;;;;;13.63;3.95;;;1.10;99.90;;;0.42;94.31;61023.25;5066198;28;20040;-76
2021/10/24 06:04:38;;;;;;;9.65;3.47;;;1.10;99.90;;;0.39;94.53;61019.97;5084613;28;20416;-76
2021/10/24 06:07:05;;;;;;;8.43;3.42;;;1.00;99.90;;;0.37;94.52;61017.56;5084075;28;20056;-76
2021/10/24 06:15:01;;;;;;;9.15;3.85;;;1.00;99.90;;;0.29;95.34;61009.66;5062677;28;20587;-75
2021/10/24 06:17:30;;;;;;;9.68;3.58;;;1.00;99.90;;;0.28;94.67;61008.22;5081504;28;20442;-75
2021/10/24 06:19:58;;;;;;;11.63;4.22;;;1.10;99.90;;;0.26;93.60;61005.56;5050634;28;20075;-75
2021/10/24 06:22:26;;;;;;;9.25;3.88;;;1.10;99.90;;;0.24;94.03;61003.13;5069812;28;20126;-75
2021/10/24 06:25:14;;;;;;;7.85;3.03;;;;;;;0.21;94.16;61000.44;5076456;28;20118;-75
2021/10/24 06:27:42;;;;;;;14.73;5.25;;;;;;;0.17;94.36;60996.53;5082895;28;20142;-76
2021/10/24 06:30:12;;;;;;;12.88;4.93;;;;;;;0.15;94.26;60994.50;5083096;28;20151;-76
2021/10/24 06:32:40;;;;;;;12.13;4.82;;;;;;;0.14;94.47;60993.16;5068261;28;20465;-75
2021/10/24 06:35:08;;;;;;;15.35;7.03;;;;;;;0.12;95.07;60991.38;5071074;28;20533;-77
2021/10/24 06:37:41;;;;;;;15.30;5.70;;;;;;;0.11;94.67;60990.19;5088715;28;20127;-76
2021/10/24 06:40:09;;;;;;;;;;;;;;;0.10;93.71;60989.56;5085310;28;20132;-76
2021/10/24 06:42:37;;;;;;;17.40;5.35;;;;;;;0.09;93.92;60988.31;5091393;28;19928;-76
2021/10/24 06:45:06;;;;;;;10.48;4.22;;;;;;;0.08;93.70;60987.72;5054363;28;20087;-76
2021/10/24 06:47:34;;;;;;;12.77;4.18;;;;;;;0.07;93.70;60986.91;5068319;28;20503;-76
2021/10/24 06:50:02;;;;;;;8.52;3.83;;;;;;;0.06;94.01;60985.94;5081344;28;20056;-76
2021/10/24 06:52:30;;;;;;;8.50;4.13;;;;;;;0.07;93.95;60986.03;5072142;28;20051;-76
2021/10/24 06:54:57;;;;;;;10.80;4.68;;;;;;;0.06;93.83;60985.50;5100639;28;20040;-74
2021/10/24 06:57:25;;;;;;;12.30;4.40;;;;;;;0.06;92.50;60985.81;5071321;28;20058;-75
2021/10/24 06:59:52;;;;;;;14.32;6.30;;;;;;;0.05;94.26;60985.19;5053281;28;20447;-75
2021/10/24 07:02:20;;;;;;;16.23;7.93;;;;;;;0.05;94.65;60984.75;5077068;28;20542;-75
2021/10/24 07:04:47;;;;;;;15.32;8.10;;;;;;;0.05;94.98;60984.66;5065117;28;20044;-74
2021/10/24 07:07:20;;;;;;;14.18;6.35;;;;;;;0.06;93.72;60985.81;5054679;28;20517;-75
2021/10/24 07:09:48;;;;;;;10.27;5.60;;;;;;;0.07;93.22;60986.91;5067595;28;20079;-75
2021/10/24 07:12:15;;;;;;;12.10;6.32;;;;;;;0.07;93.34;60987.03;5092261;28;20105;-75
2021/10/24 07:14:42;;;;;;;15.48;7.60;;;;;;;0.07;94.03;60986.75;5078016;28;20043;-75
2021/10/24 07:17:10;;;;;;;14.52;6.20;;;;;;;0.07;93.99;60986.88;5099931;28;20074;-74
2021/10/24 07:19:37;;;;;;;12.88;6.18;;;;;;;0.09;93.20;60988.22;5069798;28;20410;-75
2021/10/24 07:22:05;;;;;;;16.42;7.93;;;;;;;0.10;93.26;60990.22;5069897;28;20079;-75
2021/10/24 07:24:32;;;;;;;15.32;9.52;;;;;;;0.12;93.63;60992.06;5084936;28;20131;-74
2021/10/24 07:26:59;;;;;;;16.02;8.15;;;;;;;0.15;94.01;60995.00;5067374;28;20056;-75
2021/10/24 07:29:27;;;;;;;14.15;7.53;;;;;;;0.17;93.24;60997.75;5087247;28;20039;-75
2021/10/24 07:31:54;;;;;;;19.52;10.35;;;;;;;0.21;93.24;61001.53;5085293;28;20135;-75
2021/10/24 07:34:24;;;;;;;23.60;13.70;;;;;;;0.30;91.25;61010.97;5044075;28;20040;-75
2021/10/24 07:36:51;;;;;;;32.08;17.58;;;;;;;0.44;89.61;61024.69;5082739;28;20459;-75
2021/10/24 07:39:19;;;;;;;28.30;12.68;;;;;;;0.59;86.05;61040.28;5065236;28;20072;-75
2021/10/24 07:41:47;;;;;;;16.20;7.95;;;;;;;0.80;88.03;61061.31;5067606;28;20071;-75
2021/10/24 07:44:15;;;;;;;14.43;6.45;;;;;;;1.03;85.03;61085.56;5070129;28;20498;-75
2021/10/24 07:46:43;;;;;;;13.23;7.05;;;5.30;99.90;;;1.34;82.59;61116.84;5068514;28;20579;-75
2021/10/24 07:49:11;;;;;;;11.80;5.75;;;;;;;1.70;80.05;61153.09;5080163;28;20526;-75
2021/10/24 07:51:38;;;;;;;12.73;5.93;;;6.70;99.90;;;2.05;73.15;61189.13;5080976;28;20134;-73
2021/10/24 07:54:06;;;;;;;12.25;5.78;;;6.70;99.90;;;2.40;76.43;61225.31;5034594;28;20549;-73
2021/10/24 07:56:33;;;;;;;12.80;5.80;;;7.20;99.90;;;2.73;74.94;61258.72;5071353;28;20047;-73
2021/10/24 07:59:00;;;;;;;12.20;5.30;;;7.50;99.90;;;3.00;72.63;61285.53;5067751;28;20063;-76
2021/10/24 08:01:27;;;;;;;16.25;7.40;;;7.30;99.90;;;3.20;71.82;61306.88;5068014;28;20072;-75
2021/10/24 08:03:55;;;;;;;12.52;6.60;;;7.00;99.90;;;3.39;73.71;61325.34;5055096;28;20132;-76
2021/10/24 08:06:22;;;;;;;14.88;8.05;;;6.60;99.90;;;3.56;72.89;61343.72;5051991;28;20511;-76
2021/10/24 08:08:50;;;;;;;20.13;9.38;;;6.30;99.90;;;3.71;75.81;61358.72;5052362;28;20070;-76
2021/10/24 08:11:19;;;;;;;17.63;8.63;;;6.00;99.90;;;3.83;77.85;61371.19;5057768;28;20160;-75
2021/10/24 08:13:51;;;;;;;20.73;9.93;;;5.80;99.90;;;3.92;79.96;61380.53;5086907;28;20370;-75
2021/10/24 08:16:18;;;;;;;18.27;9.82;;;5.80;99.90;;;4.00;80.57;61388.47;5082899;28;20226;-75
2021/10/24 08:18:45;;;;;;;18.48;8.85;;;5.80;99.90;;;4.07;80.01;61396.03;5088737;28;20075;-75
2021/10/24 08:21:13;;;;;;;20.77;8.45;;;5.80;99.90;;;4.15;80.57;61403.59;5051466;28;20049;-75
2021/10/24 08:23:40;;;;;;;16.02;8.38;;;5.90;99.90;;;4.21;82.28;61409.44;5087300;28;20078;-75
2021/10/24 08:26:07;;;;;;;17.42;8.45;;;5.90;99.90;;;4.26;81.71;61415.66;5083483;28;20080;-75
2021/10/24 08:28:34;;;;;;;19.83;7.65;;;5.90;99.90;;;4.32;81.36;61420.63;5070048;28;20105;-76
2021/10/24 08:31:01;;;;;;;22.98;9.95;;;5.90;99.90;;;4.37;82.42;61426.13;5070160;28;20052;-76
2021/10/24 08:33:30;;;;;;;24.45;10.25;;;5.90;99.90;;;4.41;85.02;61430.38;5046325;28;20493;-75
2021/10/24 08:35:59;;;;;;;16.67;8.15;;;5.90;99.90;;;4.45;83.99;61434.25;5081450;28;20051;-75
2021/10/24 08:38:28;;;;;;;16.85;8.38;;;6.00;99.90;;;4.49;84.55;61438.41;5069440;28;20536;-75
2021/10/24 08:40:57;;;;;;;19.70;7.75;;;6.00;99.90;;;4.53;84.69;61442.34;5071811;28;20044;-75
2021/10/24 08:43:31;;;;;;;17.35;7.90;;;6.10;99.90;;;4.58;85.55;61447.09;5064525;28;20068;-75
2021/10/24 08:46:00;;;;;;;16.05;7.28;;;6.20;99.90;;;4.62;84.48;61451.28;5069665;28;20056;-75
2021/10/24 08:48:27;;;;;;;13.63;7.00;;;6.30;99.90;;;4.66;83.86;61456.16;5051509;28;20052;-75
2021/10/24 08:50:54;;;;;;;16.83;6.63;;;6.30;99.90;;;4.71;83.26;61460.47;5034028;28;20076;-76
2021/10/24 08:53:28;;;;;;;14.15;6.35;;;6.30;99.90;;;4.76;84.42;61465.47;5071185;28;21300;-75
2021/10/24 08:55:56;;;;;;;10.98;5.53;;;6.40;99.90;;;4.81;83.33;61471.16;5088075;28;20135;-75
2021/10/24 08:58:23;;;;;;;9.23;5.07;;;6.50;99.90;;;4.87;82.34;61476.69;5089929;28;20116;-75
2021/10/24 09:00:52;;;;;;;14.38;5.45;;;6.50;99.90;;;4.92;82.32;61482.78;5073621;28;20040;-75
2021/10/24 09:03:19;;;;;;;8.45;3.88;;;6.70;99.90;;;4.98;81.18;61488.72;5049916;28;20044;-76
2021/10/24 09:05:49;;;;;;;21.90;10.65;;;6.80;99.90;;;5.05;83.21;61495.25;5070775;28;20075;-75
2021/10/24 09:08:20;;;;;;;30.60;14.55;;;6.90;99.90;;;5.10;83.14;61501.22;5080314;28;20052;-75
2021/10/24 09:10:59;;;;;;;34.70;16.13;;;7.00;99.90;;;5.15;83.71;61506.66;5089012;28;20222;-75
2021/10/24 09:13:33;;;;;;;12.77;4.97;;;7.00;99.90;;;5.21;83.01;61512.94;5079598;28;20410;-75
2021/10/24 09:16:04;;;;;;;9.23;4.18;;;7.10;99.90;;;5.28;81.78;61519.59;5088230;28;20432;-75
2021/10/24 09:18:37;;;;;;;32.90;14.38;;;7.20;99.90;;;5.34;82.69;61526.28;5076869;28;20256;-75
2021/10/24 09:21:16;;;;;;;14.82;6.20;;;7.30;99.90;;;5.40;82.10;61530.94;5073296;28;20452;-75
2021/10/24 09:24:10;;;;;;;8.45;2.65;;;7.30;99.90;;;5.44;81.51;61535.66;5089317;28;20047;-75
2021/10/24 09:26:38;;;;;;;;;;;7.20;99.90;;;5.49;81.61;61540.84;5090918;28;20505;-75
2021/10/24 09:29:17;;;;;;;5.15;2.35;;;7.20;99.90;;;5.54;81.25;61545.56;5067271;28;20050;-75
2021/10/24 09:31:51;;;;;;;8.43;2.38;;;7.20;99.90;;;5.58;81.47;61550.31;5082145;28;20075;-75
2021/10/24 09:34:21;;;;;;;6.05;2.40;;;7.30;99.90;;;5.63;82.50;61555.47;5065193;28;20642;-75
2021/10/24 09:36:52;;;;;;;7.65;2.60;;;7.30;99.90;;;5.68;82.06;61560.22;5059486;28;20086;-75
2021/10/24 09:39:20;;;;;;;8.40;2.60;;;7.40;99.90;;;5.72;81.72;61565.13;5066973;28;20036;-75
2021/10/24 09:41:48;;;;;;;8.52;2.88;;;7.40;99.90;;;5.77;81.72;61569.72;5068259;28;20370;-75
2021/10/24 09:44:19;;;;;;;4.95;2.08;;;7.50;99.90;;;5.82;80.95;61575.03;5088143;28;20647;-74
2021/10/24 09:46:55;;;;;;;7.07;2.60;;;7.50;99.90;;;5.87;81.25;61580.16;5071523;28;20117;-75
2021/10/24 09:49:23;;;;;;;8.93;2.53;;;7.60;99.90;;;5.92;80.51;61585.06;5067195;28;20493;-75
2021/10/24 09:51:53;;;;;;;8.52;2.72;;;7.70;99.90;;;5.96;79.86;61590.09;5085264;28;20122;-75
2021/10/24 09:54:27;;;;;;;10.90;2.53;;;7.70;99.90;;;6.01;80.09;61595.09;5070601;28;20075;-75
2021/10/24 09:56:54;;;;;;;22.02;10.55;;;7.80;99.90;;;6.07;80.04;61600.19;5073198;28;20130;-74
2021/10/24 09:59:22;;;;;;;6.35;2.30;;;7.90;99.90;;;6.12;79.57;61605.75;5090046;28;20213;-75
2021/10/24 10:01:54;;;;;;;5.85;1.98;;;7.90;99.90;;;6.17;79.37;61611.03;5066393;28;20487;-74
2021/10/24 10:04:24;;;;;;;6.28;2.40;;;8.00;99.90;;;6.23;78.72;61616.91;5062311;28;20036;-75
2021/10/24 10:06:52;;;;;;;6.82;2.45;;;8.00;99.90;;;6.28;79.49;61622.03;5068803;28;20051;-75
2021/10/24 10:09:20;;;;;;;8.65;2.25;;;8.10;99.90;;;6.33;79.31;61627.69;5087804;28;20454;-75
2021/10/24 10:11:55;;;;;;;5.65;1.88;;;8.10;99.90;;;6.39;79.85;61633.75;5084416;28;20127;-75
2021/10/24 10:14:29;;;;;;;8.18;2.20;;;8.30;99.90;;;6.46;79.76;61639.84;5070864;28;20052;-75
2021/10/24 10:17:07;;;;;;;6.20;2.05;;;8.40;99.90;;;6.52;78.95;61646.03;5089783;28;20040;-76
2021/10/24 10:19:42;;;;;;;8.43;2.63;;;8.50;99.90;;;6.58;79.52;61652.38;5073109;28;20067;-76
2021/10/24 10:22:21;;;;;;;3.83;1.90;;;8.50;99.90;;;6.64;78.57;61658.44;5055800;28;20340;-75
2021/10/24 10:24:58;;;;;;;22.85;10.90;;;8.70;99.90;;;6.70;77.93;61664.81;5087349;28;20043;-76
2021/10/24 10:27:39;;;;;;;34.97;16.75;;;8.70;99.90;;;6.77;79.03;61671.72;5057100;28;20131;-75
2021/10/24 10:30:11;;;;;;;53.53;29.63;;;8.80;99.90;;;6.84;79.24;61678.53;5087455;28;20088;-76
2021/10/24 10:32:45;;;;;;;55.43;26.70;;;8.90;99.90;;;6.91;78.47;61685.38;5085387;28;20071;-76
2021/10/24 10:35:28;;;;;;;37.75;14.45;;;8.90;99.90;;;6.98;77.85;61692.41;5087576;28;20101;-75
2021/10/24 10:38:01;;;;;;;114.85;54.97;;;9.00;99.90;;;7.05;78.04;61699.13;5069751;28;20382;-75
2021/10/24 10:40:36;;;;;;;25.38;12.77;;;9.10;99.90;;;7.12;78.18;61707.34;5080026;28;20415;-75
2021/10/24 10:43:20;;;;;;;11.52;6.28;;;9.20;99.90;;;7.20;76.51;61715.03;5100455;28;20062;-76
2021/10/24 10:45:58;;;;;;;11.15;4.63;;;9.30;99.90;;;7.27;76.18;61722.63;5095034;28;20515;-75
2021/10/24 10:48:46;;;;;;;8.88;3.15;;;9.40;99.90;;;7.35;76.11;61730.22;5088911;28;20044;-73
2021/10/24 10:51:24;;;;;;;15.32;4.70;;;9.40;99.90;;;7.43;75.57;61738.47;5087234;28;20123;-74
2021/10/24 10:53:53;;;;;;;18.00;8.52;;;9.60;99.90;;;7.51;75.37;61746.59;5089452;28;20075;-73
2021/10/24 10:56:32;;;;;;;16.85;7.82;;;9.70;99.90;;;7.59;74.22;61754.72;5088339;28;20105;-75